Holden, Utah
Current Conditions -  °F | °C
As of 1:15 PM on Wednesday 28 Jan 2015 (Local Time) from KDTA Reporting Station
Clear Clear  
Wind Chill: 51°   Ceiling: Unl
Heat Index: 51°   Visibility: 10mi
Dew Point: 34°   Wind: 0mph
Humidity: 52%   Direction: NA
Pressure: 30.28"   Gusts: NA
Location:  39.1°N, 112.27°W
Report Text: KDTA 282015Z AUTO 00000KT 10SM CLR 10/01 A3028 RMK AO1 T01040009
Loading
Personal Weather Stations






























Interactive Weather Map New forecast layout! Learn more

10-Day Weather Forecast

Advertisements
Track Severe Weather on mobile